Justo Sierra — XCSN — position and weather

sailwx.info

Track history (hours):
 
Tides and Currents Weather Stations Pressure Air Temp Water Temp Dewpoint Dewpoint Depression Visibility Wind Speed Wind Dir Waves Ship Positions

Oceanographic research ship Justo Sierra (Mexico)

Detailed information on ship capabilities available from University of Delaware's Ocean Information Center.

Last reported at 2017-Mar-24 01:26 UTC. Time now 2017-Apr-30 20:28 UTC.
Position N 18°36' W 094°35'.
Warning: this ship's position is 37 days out of date.

Length 30 m.

MMSI: 345030040.

Date/timePositionNaut miles runAvg speedWind from/ knotsBaromVisibWave heightAir tempDewpointWater temp
2017-Mar-24 01:26N 18°36' W 094°35'15 7.9
2017-Mar-23 23:33N 18°44' W 094°48'1 0.9
2017-Mar-23 22:30N 18°44' W 094°49'2 2.2
2017-Mar-23 21:30N 18°46' W 094°50'37 2.2
2017-Mar-23 04:09N 19°19' W 095°08'6 9.8
2017-Mar-23 03:32N 19°13' W 095°08'6 5.4
2017-Mar-23 02:25N 19°15' W 095°14'1 0.8
2017-Mar-23 01:32N 19°16' W 095°14'2 1.5
2017-Mar-23 00:33N 19°17' W 095°15'1110.7
2017-Mar-22 23:33N 19°24' W 095°23'  
Track history (hours):
 
Tides and Currents Weather Stations Pressure Air Temp Water Temp Dewpoint Dewpoint Depression Visibility Wind Speed Wind Dir Waves Ship Positions

Oceanographic research ship Justo Sierra (Mexico)

Detailed information on ship capabilities available from University of Delaware's Ocean Information Center.

Last reported at 2017-Mar-24 01:26 UTC. Time now 2017-Apr-30 20:28 UTC.
Position N 18°36' W 094°35'.
Warning: this ship's position is 37 days out of date.

Length 30 m.

MMSI: 345030040.

Date/timePositionNaut miles runAvg speedWind from/ knotsBaromVisibWave heightAir tempDewpointWater temp
2017-Mar-24 01:26N 18°36' W 094°35'15 7.9
2017-Mar-23 23:33N 18°44' W 094°48'1 0.9
2017-Mar-23 22:30N 18°44' W 094°49'2 2.2
2017-Mar-23 21:30N 18°46' W 094°50'37 2.2
2017-Mar-23 04:09N 19°19' W 095°08'6 9.8
2017-Mar-23 03:32N 19°13' W 095°08'6 5.4
2017-Mar-23 02:25N 19°15' W 095°14'1 0.8
2017-Mar-23 01:32N 19°16' W 095°14'2 1.5
2017-Mar-23 00:33N 19°17' W 095°15'1110.7
2017-Mar-22 23:33N 19°24' W 095°23'  

Dump ship's entire track history